MMPG

Details ICAO MMPG (PDS)
Name PIEDRAS NEGRAS INTL
Region Mexico
Timezone America/Matamoros (UTC-5.0)
Plans Departing 0
Arriving 9
Stats Elevation 901 ft / 275 m (AMSL)
Location 28.627393° -100.535210°
Runways 1
Magnetic Variation 5.249° E
Sunrise 2018-05-22 11:49:12 UTC / 2018-05-22 06:49:12 Local
Sunset 2018-05-23 01:31:19 UTC / 2018-05-22 20:31:19 Local
Advertisement - Login to hide

Runways

ID Width Length Bearing (true) Bearing (mag) Surface Threshold Offset Overrun Length
12 98 ft / 30 m 6,656 ft / 2,029 m 126.92° 121.67° Asphalt 295 ft / 90 m 0 ft / 0 m
30 98 ft / 30 m 6,656 ft / 2,029 m 306.93° 301.68° Asphalt 0 ft / 0 m 0 ft / 0 m

Map

Weather


0- 5 10 15 20 25 30 35+ Temperature / ° C

Clouds and Precipitation
Forecast for 2018-05-22 18:00 UTC. Updated 3 hours ago

Ground ~20,000 ft ~40,000 ft Winds

METAR

Not found

TAF

TAF MMPG 221711Z 2218/2318 12012KT P6SM SCT025 FM230300 14010KT P6SM BKN020 FM231200 12010KT 5SM HZ OVC015

Frequencies

Tower 122.25 MHz INFO
Warning: Do not use this data for real-world aviation or navigation. No guarantee of current accuracy is given.